AirNav   Pilot Hours Calculator
 
 504 users online  

47NC Windemere Airport
Fayetteville, North Carolina, USA

GOING TO FAYETTEVILLE?


FAA INFORMATION EFFECTIVE 03 NOVEMBER 2022

Location

FAA Identifier: 47NC
Lat/Long: 35-08-17.0000N 078-49-22.0000W
35-08.283333N 078-49.366667W
35.1380556,-78.8227778
(estimated)
Elevation: 98 ft. / 30 m (estimated)
Variation: 08W ()
From city: 6 miles NE of FAYETTEVILLE, NC
Time zone: UTC -5 (UTC -4 during Daylight Saving Time)
Zip code: 28395

Airport Operations

Airport use: Private use. Permission required prior to landing
Activation date: 07/1999
Control tower: no
ARTCC: WASHINGTON CENTER
FSS: RALEIGH FLIGHT SERVICE STATION
Attendance: UNATNDD
Wind indicator: yes
Segmented circle: no

Airport Communications

WX ASOS at FAY (9 nm S): 121.25 (910-484-1546)
WX AWOS-3 at HRJ (15 nm N): 119.025 (910-814-3946)

Nearby radio navigation aids

VOR radial/distance  VOR name  Freq  Var
FAYr020/9.5FAYETTEVILLE VOR/DME114.8504W
SDZr100/37.8SANDHILLS VORTAC111.8003W

 
NDB name  Hdg/Dist  Freq  Var  ID
HARNETT210/19.141708WHQT .... --.- -
CLINTON302/24.741209WCTZ -.-. - --..

Airport Services

Runway Information

Runway 4/22

Dimensions: 2890 x 150 ft. / 881 x 46 m
Surface: turf
RUNWAY 4  RUNWAY 22
Traffic pattern: rightleft

Airport Ownership and Management from official FAA records

Ownership: Privately-owned
Owner: SAMUEL W. BOWYER
P.O. BOX 53186
FAYETTEVILLE, NC 28305
Phone 910-323-0987
Manager: FRANCIS H. BOWYER
3842 RIVER ROAD
WADE, NC 28395
Phone 910-485-6750

Airport Operational Statistics

Aircraft based on the field: 1
Single engine airplanes: 1
    

Additional Remarks

35 FT PLINE 1000 FT N, 40 FT BLDG 200 FT W OF ARPT HNGR.
FOR CD CTC WASHINGTON ARTCC AT 703-771-3587.

Instrument Procedures

There are no published instrument procedures at 47NC.

Some nearby airports with instrument procedures:

KFBG - Simmons Army Airfield (6 nm W)
KFAY - Fayetteville Regional Airport/Grannis Field (9 nm S)
KPOB - Pope Army Airfield (10 nm W)
KHRJ - Harnett Regional Jetport Airport (15 nm N)
5W4 - P K Airpark (19 nm W)
 
Loc | Ops | Rwys | IFR | FBO | Links
Com | Nav | Svcs | Stats | Notes
Area around 47NC (Windemere Airport)
 
Road maps at: MapQuest Bing Google
 
Aerial photo
No photo
 
Sectional chart

 
Airport distance calculator
Flying to Windemere Airport? Find the distance to fly.

From to 47NC

Sunrise and sunset
Times for 28-Nov-2022
 Local
(UTC-5)
 Zulu
(UTC)
Morning civil twilight06:3611:36
Sunrise07:0412:04
Sunset17:0322:03
Evening civil twilight17:3122:31

Current date and time
Zulu (UTC)  28-Nov-2022 07:47:49
Local (UTC-5)  28-Nov-2022 02:47:49
 
METAR
KFBG 
5nm W 
280655Z AUTO 25011KT 10SM CLR 15/07 A2973 RMK AO2 SLP069 T01500070 $
KPOB 
10nm W 
280655Z AUTO 24008KT 10SM CLR 14/07 A2974 RMK AO2 SLP073 T01430069 $
KFAY 
10nm S 
280653Z 25010KT 10SM CLR 15/08 A2975 RMK AO2 SLP068 T01500078
KHRJ 
15nm N 
280735Z AUTO 24007KT 10SM CLR 13/08 A2976 RMK AO2 T01280076
TAF
KFAY 
10nm S 
280523Z 2806/2906 24007KT P6SM SKC FM281500 27010KT P6SM SCT050 FM282000 30006KT P6SM SKC
NOTAMs
Click for the latest NOTAMs
NOTAMs are issued by the DoD/FAA and will open in a separate window not controlled by AirNav.

 

 
 

Would you like to see your business listed on this page?

 If your business provides an interesting product or service to pilots, flight crews, aircraft, or users of the Windemere Airport, you should consider listing it here.  To start the listing process, click on the button below
 
Add a business
 

Other Pages about Windemere Airport

Update a link
 
Copyright © AirNav, LLC. All rights reserved. Privacy Policy  Contact